Terminal Aerodrome Forecast
Issued by NWS Green Bay, WI

Home | Current Version | Previous Version | Text Only | Print | Product List | Glossary On
Versions: 1 2 3 4 5 6 7 8 9 10 11 12 13 14 15 16
000
FTUS43 KGRB 020045 AAA
TAFGRB
TAF AMD
KGRB 020045Z 0201/0224 05011G15KT P6SM SCT030 SCT150
     FM020600 02010KT P6SM FEW030 SCT100
     FM021000 36007KT P6SM FEW060 SCT100
     FM021500 01006KT P6SM SCT060 BKN090=

USA.gov is the U.S. government's official web portal to all federal, state and local government web resources and services.